sensor_id;sensor_type;location;lat;lon;timestamp;pressure;altitude;pressure_sealevel;temperature;humidity
51081;BME280;37130;55.670;37.596;2023-02-14T00:01:18;98315.31;;;0.70;100.00
51081;BME280;37130;55.670;37.596;2023-02-14T00:03:46;98219.78;;;0.10;100.00
51081;BME280;37130;55.670;37.596;2023-02-14T00:06:15;98259.41;;;0.21;100.00
51081;BME280;37130;55.670;37.596;2023-02-14T00:08:43;98304.16;;;0.65;100.00
51081;BME280;37130;55.670;37.596;2023-02-14T00:11:12;98248.75;;;0.29;100.00
51081;BME280;37130;55.670;37.596;2023-02-14T00:13:40;98230.84;;;0.18;100.00
51081;BME280;37130;55.670;37.596;2023-02-14T00:16:28;98318.81;;;0.69;100.00
51081;BME280;37130;55.670;37.596;2023-02-14T00:18:55;98188.25;;;-0.11;100.00
51081;BME280;37130;55.670;37.596;2023-02-14T00:21:34;98319.66;;;0.70;100.00
51081;BME280;37130;55.670;37.596;2023-02-14T00:24:04;98309.47;;;0.62;100.00
51081;BME280;37130;55.670;37.596;2023-02-14T00:26:32;98324.16;;;0.64;100.00
51081;BME280;37130;55.670;37.596;2023-02-14T00:28:59;98318.06;;;0.65;100.00
51081;BME280;37130;55.670;37.596;2023-02-14T00:31:27;98320.59;;;0.67;100.00
51081;BME280;37130;55.670;37.596;2023-02-14T00:33:55;98328.44;;;0.67;100.00
51081;BME280;37130;55.670;37.596;2023-02-14T00:36:23;98329.25;;;0.69;100.00
51081;BME280;37130;55.670;37.596;2023-02-14T00:38:50;98329.16;;;0.72;100.00
51081;BME280;37130;55.670;37.596;2023-02-14T00:41:18;98332.66;;;0.71;100.00
51081;BME280;37130;55.670;37.596;2023-02-14T00:43:47;98330.81;;;0.75;100.00
51081;BME280;37130;55.670;37.596;2023-02-14T00:46:17;98325.69;;;0.72;100.00
51081;BME280;37130;55.670;37.596;2023-02-14T00:48:45;98320.66;;;0.65;100.00
51081;BME280;37130;55.670;37.596;2023-02-14T00:51:13;98231.84;;;0.12;100.00
51081;BME280;37130;55.670;37.596;2023-02-14T00:53:42;98308.34;;;0.71;100.00
51081;BME280;37130;55.670;37.596;2023-02-14T00:56:11;98323.00;;;0.75;100.00
51081;BME280;37130;55.670;37.596;2023-02-14T00:58:39;98330.09;;;0.70;100.00
51081;BME280;37130;55.670;37.596;2023-02-14T01:01:07;98329.19;;;0.71;100.00
51081;BME280;37130;55.670;37.596;2023-02-14T01:03:39;98345.75;;;0.68;100.00
51081;BME280;37130;55.670;37.596;2023-02-14T01:06:07;98351.16;;;0.62;100.00
51081;BME280;37130;55.670;37.596;2023-02-14T01:08:35;98350.47;;;0.55;100.00
51081;BME280;37130;55.670;37.596;2023-02-14T01:11:15;98346.22;;;0.51;100.00
51081;BME280;37130;55.670;37.596;2023-02-14T01:13:45;98340.06;;;0.55;100.00
51081;BME280;37130;55.670;37.596;2023-02-14T01:16:18;98346.88;;;0.59;100.00
51081;BME280;37130;55.670;37.596;2023-02-14T01:18:47;98347.59;;;0.64;100.00
51081;BME280;37130;55.670;37.596;2023-02-14T01:21:26;98340.72;;;0.62;100.00
51081;BME280;37130;55.670;37.596;2023-02-14T01:23:57;98352.78;;;0.66;100.00
51081;BME280;37130;55.670;37.596;2023-02-14T01:26:25;98339.88;;;0.61;100.00
51081;BME280;37130;55.670;37.596;2023-02-14T01:28:54;98346.88;;;0.59;100.00
51081;BME280;37130;55.670;37.596;2023-02-14T01:31:26;98340.91;;;0.56;100.00
51081;BME280;37130;55.670;37.596;2023-02-14T01:33:56;98352.50;;;0.44;100.00
51081;BME280;37130;55.670;37.596;2023-02-14T01:38:58;98360.69;;;0.30;100.00
51081;BME280;37130;55.670;37.596;2023-02-14T01:41:29;98378.81;;;0.33;100.00
51081;BME280;37130;55.670;37.596;2023-02-14T01:44:01;98375.47;;;0.30;100.00
51081;BME280;37130;55.670;37.596;2023-02-14T01:46:35;98381.53;;;0.30;100.00
51081;BME280;37130;55.670;37.596;2023-02-14T01:49:16;98375.47;;;0.30;100.00
51081;BME280;37130;55.670;37.596;2023-02-14T01:51:51;98375.38;;;0.33;100.00
51081;BME280;37130;55.670;37.596;2023-02-14T01:54:22;98374.44;;;0.35;100.00
51081;BME280;37130;55.670;37.596;2023-02-14T01:56:55;98375.19;;;0.39;100.00
51081;BME280;37130;55.670;37.596;2023-02-14T01:59:27;98370.00;;;0.39;100.00
51081;BME280;37130;55.670;37.596;2023-02-14T02:01:57;98363.13;;;0.36;100.00
51081;BME280;37130;55.670;37.596;2023-02-14T02:04:29;98371.00;;;0.35;100.00
51081;BME280;37130;55.670;37.596;2023-02-14T02:07:02;98363.41;;;0.26;100.00
51081;BME280;37130;55.670;37.596;2023-02-14T02:09:42;98381.44;;;0.33;100.00
51081;BME280;37130;55.670;37.596;2023-02-14T02:12:12;98362.75;;;0.17;100.00
51081;BME280;37130;55.670;37.596;2023-02-14T02:14:42;98317.66;;;-0.17;100.00
51081;BME280;37130;55.670;37.596;2023-02-14T02:37:35;98396.88;;;0.07;100.00
51081;BME280;37130;55.670;37.596;2023-02-14T02:40:26;98394.25;;;0.07;100.00
51081;BME280;37130;55.670;37.596;2023-02-14T02:49:13;98393.31;;;0.11;100.00
51081;BME280;37130;55.670;37.596;2023-02-14T02:55:43;98392.41;;;0.10;100.00
51081;BME280;37130;55.670;37.596;2023-02-14T02:58:36;98387.97;;;0.15;100.00
51081;BME280;37130;55.670;37.596;2023-02-14T03:01:13;98390.53;;;0.17;100.00
51081;BME280;37130;55.670;37.596;2023-02-14T03:03:44;98319.72;;;-0.32;100.00
51081;BME280;37130;55.670;37.596;2023-02-14T03:06:48;98388.84;;;0.16;100.00
51081;BME280;37130;55.670;37.596;2023-02-14T03:26:47;98397.91;;;0.34;100.00
51081;BME280;37130;55.670;37.596;2023-02-14T03:32:47;98394.56;;;0.29;100.00
51081;BME280;37130;55.670;37.596;2023-02-14T03:35:24;98392.69;;;0.34;100.00
51081;BME280;37130;55.670;37.596;2023-02-14T03:38:04;98385.09;;;0.26;100.00
51081;BME280;37130;55.670;37.596;2023-02-14T03:40:41;98398.69;;;0.37;100.00
51081;BME280;37130;55.670;37.596;2023-02-14T03:43:17;98395.31;;;0.34;100.00
51081;BME280;37130;55.670;37.596;2023-02-14T03:48:49;98412.41;;;0.44;100.00
51081;BME280;37130;55.670;37.596;2023-02-14T03:51:19;98328.66;;;-0.06;100.00
51081;BME280;37130;55.670;37.596;2023-02-14T03:53:52;98412.38;;;0.46;100.00
51081;BME280;37130;55.670;37.596;2023-02-14T03:59:11;98420.28;;;0.41;100.00
51081;BME280;37130;55.670;37.596;2023-02-14T04:02:05;98422.97;;;0.39;100.00
51081;BME280;37130;55.670;37.596;2023-02-14T04:04:37;98350.19;;;0.01;100.00
51081;BME280;37130;55.670;37.596;2023-02-14T04:07:11;98434.16;;;0.43;100.00
51081;BME280;37130;55.670;37.596;2023-02-14T04:09:39;98313.88;;;-0.40;100.00
51081;BME280;37130;55.670;37.596;2023-02-14T04:12:07;98325.56;;;-0.58;100.00
51081;BME280;37130;55.670;37.596;2023-02-14T04:14:35;98430.41;;;-0.18;100.00
51081;BME280;37130;55.670;37.596;2023-02-14T04:17:04;98426.38;;;-0.30;100.00
51081;BME280;37130;55.670;37.596;2023-02-14T04:19:50;98416.88;;;-0.33;100.00
51081;BME280;37130;55.670;37.596;2023-02-14T04:22:17;98432.41;;;-0.30;100.00
51081;BME280;37130;55.670;37.596;2023-02-14T04:24:45;98426.47;;;-0.35;100.00
51081;BME280;37130;55.670;37.596;2023-02-14T04:27:13;98435.81;;;-0.26;100.00
51081;BME280;37130;55.670;37.596;2023-02-14T04:29:44;98437.59;;;-0.28;100.00
51081;BME280;37130;55.670;37.596;2023-02-14T04:32:18;98442.13;;;-0.38;100.00
51081;BME280;37130;55.670;37.596;2023-02-14T04:34:47;98447.34;;;-0.38;100.00
51081;BME280;37130;55.670;37.596;2023-02-14T04:37:16;98458.53;;;-0.34;100.00
51081;BME280;37130;55.670;37.596;2023-02-14T04:39:44;98443.81;;;-0.35;100.00
51081;BME280;37130;55.670;37.596;2023-02-14T04:42:12;98461.84;;;-0.28;100.00
51081;BME280;37130;55.670;37.596;2023-02-14T04:44:40;98458.25;;;-0.20;100.00
51081;BME280;37130;55.670;37.596;2023-02-14T04:47:08;98452.97;;;-0.17;100.00
51081;BME280;37130;55.670;37.596;2023-02-14T04:49:36;98455.22;;;-0.04;100.00
51081;BME280;37130;55.670;37.596;2023-02-14T04:52:03;98456.84;;;0.02;100.00
51081;BME280;37130;55.670;37.596;2023-02-14T04:54:31;98474.94;;;0.08;100.00
51081;BME280;37130;55.670;37.596;2023-02-14T04:56:59;98466.97;;;0.14;100.00
51081;BME280;37130;55.670;37.596;2023-02-14T04:59:27;98474.69;;;0.17;100.00
51081;BME280;37130;55.670;37.596;2023-02-14T05:01:55;98481.56;;;0.21;100.00
51081;BME280;37130;55.670;37.596;2023-02-14T05:04:22;98458.38;;;0.11;100.00
51081;BME280;37130;55.670;37.596;2023-02-14T05:06:50;98484.94;;;0.25;100.00
51081;BME280;37130;55.670;37.596;2023-02-14T05:09:18;98493.66;;;0.22;100.00
51081;BME280;37130;55.670;37.596;2023-02-14T05:11:46;98389.97;;;-0.32;100.00
51081;BME280;37130;55.670;37.596;2023-02-14T05:14:13;98500.28;;;0.36;100.00
51081;BME280;37130;55.670;37.596;2023-02-14T05:16:41;98496.66;;;0.41;100.00
51081;BME280;37130;55.670;37.596;2023-02-14T05:19:08;98508.84;;;0.41;100.00
51081;BME280;37130;55.670;37.596;2023-02-14T05:21:36;98510.50;;;0.45;100.00
51081;BME280;37130;55.670;37.596;2023-02-14T05:24:05;98518.25;;;0.47;100.00
51081;BME280;37130;55.670;37.596;2023-02-14T05:26:33;98506.28;;;0.39;100.00
51081;BME280;37130;55.670;37.596;2023-02-14T05:29:01;98514.97;;;0.40;100.00
51081;BME280;37130;55.670;37.596;2023-02-14T05:31:28;98516.72;;;0.39;100.00
51081;BME280;37130;55.670;37.596;2023-02-14T05:34:02;98499.69;;;0.25;100.00
51081;BME280;37130;55.670;37.596;2023-02-14T05:36:30;98421.81;;;-0.20;100.00
51081;BME280;37130;55.670;37.596;2023-02-14T05:38:58;98364.72;;;-0.64;100.00
51081;BME280;37130;55.670;37.596;2023-02-14T05:41:26;98525.38;;;0.40;100.00
51081;BME280;37130;55.670;37.596;2023-02-14T05:43:53;98527.00;;;0.44;100.00
51081;BME280;37130;55.670;37.596;2023-02-14T05:46:21;98504.47;;;0.41;100.00
51081;BME280;37130;55.670;37.596;2023-02-14T05:48:49;98505.41;;;0.39;100.00
51081;BME280;37130;55.670;37.596;2023-02-14T05:51:16;98457.38;;;0.16;100.00
51081;BME280;37130;55.670;37.596;2023-02-14T05:53:44;98522.41;;;0.55;100.00
51081;BME280;37130;55.670;37.596;2023-02-14T05:56:11;98523.91;;;0.64;100.00
51081;BME280;37130;55.670;37.596;2023-02-14T05:58:38;98521.88;;;0.77;100.00
51081;BME280;37130;55.670;37.596;2023-02-14T06:01:06;98514.81;;;0.80;100.00
51081;BME280;37130;55.670;37.596;2023-02-14T06:03:34;98367.59;;;-0.03;100.00
51081;BME280;37130;55.670;37.596;2023-02-14T06:06:02;98523.94;;;0.97;100.00
51081;BME280;37130;55.670;37.596;2023-02-14T06:08:29;98514.44;;;0.94;100.00
51081;BME280;37130;55.670;37.596;2023-02-14T06:10:56;98526.63;;;0.94;100.00
51081;BME280;37130;55.670;37.596;2023-02-14T06:13:24;98526.50;;;0.98;100.00
51081;BME280;37130;55.670;37.596;2023-02-14T06:15:52;98451.00;;;0.62;100.00
51081;BME280;37130;55.670;37.596;2023-02-14T06:18:19;98533.03;;;1.15;100.00
51081;BME280;37130;55.670;37.596;2023-02-14T06:20:47;98531.13;;;1.21;100.00
51081;BME280;37130;55.670;37.596;2023-02-14T06:23:15;98529.53;;;1.16;100.00
51081;BME280;37130;55.670;37.596;2023-02-14T06:25:42;98533.88;;;1.15;100.00
51081;BME280;37130;55.670;37.596;2023-02-14T06:28:09;98539.09;;;1.15;100.00
51081;BME280;37130;55.670;37.596;2023-02-14T06:30:37;98534.69;;;1.17;100.00
51081;BME280;37130;55.670;37.596;2023-02-14T06:33:05;98539.88;;;1.19;100.00
51081;BME280;37130;55.670;37.596;2023-02-14T06:35:32;98541.56;;;1.20;100.00
51081;BME280;37130;55.670;37.596;2023-02-14T06:38:01;98456.19;;;0.64;100.00
51081;BME280;37130;55.670;37.596;2023-02-14T06:40:28;98525.75;;;0.95;100.00
51081;BME280;37130;55.670;37.596;2023-02-14T06:42:56;98436.03;;;0.36;100.00
51081;BME280;37130;55.670;37.596;2023-02-14T06:45:24;98475.63;;;0.51;100.00
51081;BME280;37130;55.670;37.596;2023-02-14T06:47:51;98544.00;;;0.95;100.00
51081;BME280;37130;55.670;37.596;2023-02-14T06:50:19;98556.88;;;0.99;100.00
51081;BME280;37130;55.670;37.596;2023-02-14T06:52:47;98464.34;;;0.50;100.00
51081;BME280;37130;55.670;37.596;2023-02-14T06:55:17;98552.50;;;1.01;100.00
51081;BME280;37130;55.670;37.596;2023-02-14T06:57:45;98565.34;;;1.09;100.00
51081;BME280;37130;55.670;37.596;2023-02-14T07:00:13;98514.66;;;0.86;100.00
51081;BME280;37130;55.670;37.596;2023-02-14T07:02:41;98560.97;;;1.09;100.00
51081;BME280;37130;55.670;37.596;2023-02-14T07:05:08;98569.63;;;1.12;100.00
51081;BME280;37130;55.670;37.596;2023-02-14T07:07:36;98571.25;;;1.16;100.00
51081;BME280;37130;55.670;37.596;2023-02-14T07:10:04;98557.56;;;1.07;100.00
51081;BME280;37130;55.670;37.596;2023-02-14T07:12:31;98590.25;;;1.21;100.00
51081;BME280;37130;55.670;37.596;2023-02-14T07:14:59;98582.34;;;1.24;100.00
51081;BME280;37130;55.670;37.596;2023-02-14T07:17:26;98593.34;;;1.35;100.00
51081;BME280;37130;55.670;37.596;2023-02-14T07:19:54;98573.16;;;1.42;100.00
51081;BME280;37130;55.670;37.596;2023-02-14T07:22:21;98569.00;;;1.35;100.00
51081;BME280;37130;55.670;37.596;2023-02-14T07:24:49;98597.41;;;1.45;100.00
51081;BME280;37130;55.670;37.596;2023-02-14T07:27:17;98584.03;;;1.58;100.00
51081;BME280;37130;55.670;37.596;2023-02-14T07:29:44;98600.78;;;1.80;100.00
51081;BME280;37130;55.670;37.596;2023-02-14T07:32:12;98435.44;;;0.92;100.00
51081;BME280;37130;55.670;37.596;2023-02-14T07:34:40;98527.66;;;1.52;100.00
51081;BME280;37130;55.670;37.596;2023-02-14T07:37:08;98596.25;;;1.87;100.00
51081;BME280;37130;55.670;37.596;2023-02-14T07:39:36;98605.66;;;1.92;100.00
51081;BME280;37130;55.670;37.596;2023-02-14T07:42:04;98600.34;;;1.95;100.00
51081;BME280;37130;55.670;37.596;2023-02-14T07:44:31;98613.31;;;1.98;100.00
51081;BME280;37130;55.670;37.596;2023-02-14T07:46:59;98608.00;;;2.02;100.00
51081;BME280;37130;55.670;37.596;2023-02-14T07:49:26;98556.41;;;1.80;100.00
51081;BME280;37130;55.670;37.596;2023-02-14T07:51:54;98623.19;;;2.18;100.00
51081;BME280;37130;55.670;37.596;2023-02-14T07:54:21;98600.03;;;2.06;100.00
51081;BME280;37130;55.670;37.596;2023-02-14T07:56:49;98615.22;;;2.23;100.00
51081;BME280;37130;55.670;37.596;2023-02-14T07:59:16;98611.44;;;2.33;99.95
51081;BME280;37130;55.670;37.596;2023-02-14T08:01:44;98610.00;;;2.51;99.48
51081;BME280;37130;55.670;37.596;2023-02-14T08:04:12;98620.16;;;2.62;98.67
51081;BME280;37130;55.670;37.596;2023-02-14T08:06:42;98627.06;;;2.63;98.75
51081;BME280;37130;55.670;37.596;2023-02-14T08:09:10;98638.72;;;2.53;97.86
51081;BME280;37130;55.670;37.596;2023-02-14T08:11:53;98608.72;;;2.36;98.35
51081;BME280;37130;55.670;37.596;2023-02-14T08:14:43;98582.44;;;2.13;98.44
51081;BME280;37130;55.670;37.596;2023-02-14T08:17:11;98609.25;;;2.48;98.81
51081;BME280;37130;55.670;37.596;2023-02-14T08:19:40;98605.81;;;2.46;98.46
51081;BME280;37130;55.670;37.596;2023-02-14T08:22:08;98646.56;;;2.81;98.31
51081;BME280;37130;55.670;37.596;2023-02-14T08:24:36;98641.09;;;2.89;97.57
51081;BME280;37130;55.670;37.596;2023-02-14T08:27:04;98638.22;;;2.96;97.66
51081;BME280;37130;55.670;37.596;2023-02-14T08:29:35;98546.25;;;2.57;97.31
51081;BME280;37130;55.670;37.596;2023-02-14T08:32:03;98645.72;;;3.07;97.23
51081;BME280;37130;55.670;37.596;2023-02-14T08:34:31;98545.88;;;2.13;96.71
51081;BME280;37130;55.670;37.596;2023-02-14T08:37:03;98661.63;;;2.45;96.96
51081;BME280;37130;55.670;37.596;2023-02-14T08:39:31;98664.47;;;2.06;98.24
51081;BME280;37130;55.670;37.596;2023-02-14T08:41:59;98648.81;;;1.74;99.30
51081;BME280;37130;55.670;37.596;2023-02-14T08:44:27;98575.13;;;0.99;99.42
51081;BME280;37130;55.670;37.596;2023-02-14T08:46:54;98673.06;;;1.45;99.63
51081;BME280;37130;55.670;37.596;2023-02-14T08:49:22;98587.03;;;0.75;99.88
51081;BME280;37130;55.670;37.596;2023-02-14T08:51:50;98595.84;;;0.71;100.00
51081;BME280;37130;55.670;37.596;2023-02-14T08:54:18;98687.63;;;1.20;100.00
51081;BME280;37130;55.670;37.596;2023-02-14T08:56:52;98675.59;;;1.13;100.00
51081;BME280;37130;55.670;37.596;2023-02-14T08:59:28;98688.25;;;1.29;100.00
51081;BME280;37130;55.670;37.596;2023-02-14T09:01:56;98649.41;;;1.19;100.00
51081;BME280;37130;55.670;37.596;2023-02-14T09:04:33;98572.66;;;0.60;99.57
51081;BME280;37130;55.670;37.596;2023-02-14T09:07:01;98694.22;;;1.35;99.95
51081;BME280;37130;55.670;37.596;2023-02-14T09:09:31;98699.44;;;1.33;99.97
51081;BME280;37130;55.670;37.596;2023-02-14T09:12:03;98699.50;;;1.31;99.65
51081;BME280;37130;55.670;37.596;2023-02-14T09:14:35;98676.81;;;0.99;99.44
51081;BME280;37130;55.670;37.596;2023-02-14T09:17:06;98728.97;;;1.35;99.66
51081;BME280;37130;55.670;37.596;2023-02-14T09:19:36;98720.88;;;1.46;99.43
51081;BME280;37130;55.670;37.596;2023-02-14T09:22:05;98605.47;;;1.02;99.13
51081;BME280;37130;55.670;37.596;2023-02-14T09:24:35;98721.69;;;2.15;98.48
51081;BME280;37130;55.670;37.596;2023-02-14T09:27:04;98715.25;;;2.56;97.43
51081;BME280;37130;55.670;37.596;2023-02-14T09:29:32;98728.28;;;2.88;96.87
51081;BME280;37130;55.670;37.596;2023-02-14T09:32:01;98675.81;;;2.64;96.23
51081;BME280;37130;55.670;37.596;2023-02-14T09:34:32;98728.09;;;2.94;94.90
51081;BME280;37130;55.670;37.596;2023-02-14T09:36:59;98736.28;;;2.83;95.48
51081;BME280;37130;55.670;37.596;2023-02-14T09:39:27;98735.00;;;2.67;95.30
51081;BME280;37130;55.670;37.596;2023-02-14T09:47:53;98741.38;;;2.58;95.84
51081;BME280;37130;55.670;37.596;2023-02-14T09:50:24;98741.25;;;2.61;95.27
51081;BME280;37130;55.670;37.596;2023-02-14T09:53:02;98706.13;;;2.41;94.89
51081;BME280;37130;55.670;37.596;2023-02-14T09:55:38;98740.19;;;2.68;94.51
51081;BME280;37130;55.670;37.596;2023-02-14T09:58:14;98761.63;;;2.79;96.79
51081;BME280;37130;55.670;37.596;2023-02-14T10:04:18;98772.78;;;3.14;94.72
51081;BME280;37130;55.670;37.596;2023-02-14T10:06:47;98763.94;;;3.18;94.58
51081;BME280;37130;55.670;37.596;2023-02-14T10:09:40;98779.28;;;3.31;94.24
51081;BME280;37130;55.670;37.596;2023-02-14T10:12:19;98778.81;;;3.44;93.61
51081;BME280;37130;55.670;37.596;2023-02-14T10:14:49;98780.88;;;3.35;93.69
51081;BME280;37130;55.670;37.596;2023-02-14T10:17:41;98795.19;;;3.51;93.51
51081;BME280;37130;55.670;37.596;2023-02-14T10:23:01;98792.75;;;3.17;92.57
51081;BME280;37130;55.670;37.596;2023-02-14T10:25:38;98798.16;;;2.82;92.95
51081;BME280;37130;55.670;37.596;2023-02-14T10:28:12;98719.22;;;2.09;92.72
51081;BME280;37130;55.670;37.596;2023-02-14T10:30:54;98801.91;;;2.42;93.13
51081;BME280;37130;55.670;37.596;2023-02-14T10:33:29;98748.66;;;1.83;92.87
51081;BME280;37130;55.670;37.596;2023-02-14T10:36:03;98809.91;;;2.04;92.53
51081;BME280;37130;55.670;37.596;2023-02-14T10:41:44;98825.69;;;1.99;94.21
51081;BME280;37130;55.670;37.596;2023-02-14T10:44:28;98827.41;;;2.00;95.74
51081;BME280;37130;55.670;37.596;2023-02-14T10:50:06;98829.72;;;2.44;93.27
51081;BME280;37130;55.670;37.596;2023-02-14T10:53:32;98835.03;;;2.40;93.09
51081;BME280;37130;55.670;37.596;2023-02-14T10:55:57;98833.38;;;2.69;92.66
51081;BME280;37130;55.670;37.596;2023-02-14T10:58:31;98834.75;;;2.82;91.63
51081;BME280;37130;55.670;37.596;2023-02-14T11:01:05;98777.66;;;2.69;90.91
51081;BME280;37130;55.670;37.596;2023-02-14T11:03:36;98836.19;;;2.94;90.79
51081;BME280;37130;55.670;37.596;2023-02-14T11:06:05;98826.34;;;2.73;90.75
51081;BME280;37130;55.670;37.596;2023-02-14T11:08:35;98858.78;;;2.66;91.29
51081;BME280;37130;55.670;37.596;2023-02-14T11:13:36;98843.19;;;2.62;92.57
51081;BME280;37130;55.670;37.596;2023-02-14T11:16:11;98845.06;;;2.57;92.21
51081;BME280;37130;55.670;37.596;2023-02-14T11:18:40;98869.44;;;2.58;92.14
51081;BME280;37130;55.670;37.596;2023-02-14T11:21:13;98873.19;;;2.48;92.65
51081;BME280;37130;55.670;37.596;2023-02-14T11:23:48;98888.34;;;2.35;92.65
51081;BME280;37130;55.670;37.596;2023-02-14T11:26:29;98819.63;;;1.63;92.19
51081;BME280;37130;55.670;37.596;2023-02-14T11:29:02;98818.22;;;1.49;92.01
51081;BME280;37130;55.670;37.596;2023-02-14T11:31:35;98890.41;;;1.86;91.96
51081;BME280;37130;55.670;37.596;2023-02-14T11:34:22;98905.34;;;1.80;92.26
51081;BME280;37130;55.670;37.596;2023-02-14T11:36:51;98899.47;;;1.71;92.77
51081;BME280;37130;55.670;37.596;2023-02-14T11:39:32;98894.22;;;1.73;92.43
51081;BME280;37130;55.670;37.596;2023-02-14T11:42:03;98900.28;;;1.73;91.80
51081;BME280;37130;55.670;37.596;2023-02-14T11:44:33;98897.78;;;1.69;91.98
51081;BME280;37130;55.670;37.596;2023-02-14T11:47:38;98913.69;;;1.57;91.81
51081;BME280;37130;55.670;37.596;2023-02-14T11:50:22;98910.25;;;1.54;91.20
51081;BME280;37130;55.670;37.596;2023-02-14T11:52:55;98902.97;;;1.70;91.90
51081;BME280;37130;55.670;37.596;2023-02-14T11:55:32;98901.31;;;2.04;91.40
51081;BME280;37130;55.670;37.596;2023-02-14T11:58:05;98908.66;;;2.24;90.63
51081;BME280;37130;55.670;37.596;2023-02-14T12:00:33;98917.44;;;2.19;90.03
51081;BME280;37130;55.670;37.596;2023-02-14T12:03:03;98914.16;;;2.13;89.33
51081;BME280;37130;55.670;37.596;2023-02-14T12:05:47;98920.66;;;1.95;89.64
51081;BME280;37130;55.670;37.596;2023-02-14T12:08:24;98910.69;;;1.75;89.08
51081;BME280;37130;55.670;37.596;2023-02-14T12:11:04;98929.94;;;1.71;92.48
51081;BME280;37130;55.670;37.596;2023-02-14T12:13:32;98921.84;;;1.82;91.41
51081;BME280;37130;55.670;37.596;2023-02-14T12:15:59;98914.13;;;1.77;90.94
51081;BME280;37130;55.670;37.596;2023-02-14T12:29:46;98881.19;;;0.92;91.11
51081;BME280;37130;55.670;37.596;2023-02-14T12:32:24;98955.69;;;1.46;91.37
51081;BME280;37130;55.670;37.596;2023-02-14T12:35:15;98970.03;;;1.67;91.23
51081;BME280;37130;55.670;37.596;2023-02-14T12:37:58;98926.13;;;1.47;91.53
51081;BME280;37130;55.670;37.596;2023-02-14T12:54:50;99002.31;;;1.21;92.13
51081;BME280;37130;55.670;37.596;2023-02-14T13:06:22;99026.84;;;1.11;91.92
51081;BME280;37130;55.670;37.596;2023-02-14T13:14:57;99041.56;;;1.12;92.33
51081;BME280;37130;55.670;37.596;2023-02-14T13:18:06;99052.22;;;1.01;91.97
51081;BME280;37130;55.670;37.596;2023-02-14T13:20:53;99058.34;;;0.98;92.22
51081;BME280;37130;55.670;37.596;2023-02-14T13:26:14;99057.69;;;0.85;90.61
51081;BME280;37130;55.670;37.596;2023-02-14T13:28:54;99081.03;;;0.92;90.92
51081;BME280;37130;55.670;37.596;2023-02-14T13:31:22;99070.50;;;0.98;90.53
51081;BME280;37130;55.670;37.596;2023-02-14T13:33:54;99085.25;;;1.00;90.59
51081;BME280;37130;55.670;37.596;2023-02-14T13:36:24;99076.56;;;1.00;91.28
51081;BME280;37130;55.670;37.596;2023-02-14T13:38:54;99021.75;;;0.52;90.99
51081;BME280;37130;55.670;37.596;2023-02-14T13:41:23;99091.44;;;0.93;90.61
51081;BME280;37130;55.670;37.596;2023-02-14T13:43:56;99106.31;;;0.88;90.50
51081;BME280;37130;55.670;37.596;2023-02-14T13:49:24;99108.22;;;0.77;91.72
51081;BME280;37130;55.670;37.596;2023-02-14T13:51:55;99116.84;;;0.82;92.61
51081;BME280;37130;55.670;37.596;2023-02-14T13:54:30;99124.66;;;0.80;92.34
51081;BME280;37130;55.670;37.596;2023-02-14T13:57:02;99115.44;;;0.61;94.09
51081;BME280;37130;55.670;37.596;2023-02-14T13:59:34;99118.72;;;0.71;93.04
51081;BME280;37130;55.670;37.596;2023-02-14T14:04:57;99103.31;;;0.58;92.86
51081;BME280;37130;55.670;37.596;2023-02-14T14:07:27;99136.97;;;0.71;92.51
51081;BME280;37130;55.670;37.596;2023-02-14T14:09:59;99133.44;;;0.75;93.16
51081;BME280;37130;55.670;37.596;2023-02-14T14:17:34;99151.69;;;0.76;93.03
51081;BME280;37130;55.670;37.596;2023-02-14T14:22:50;99159.66;;;0.65;93.21
51081;BME280;37130;55.670;37.596;2023-02-14T14:28:19;99174.63;;;0.50;94.37
51081;BME280;37130;55.670;37.596;2023-02-14T14:30:46;99072.97;;;-0.05;94.06
51081;BME280;37130;55.670;37.596;2023-02-14T14:33:26;99178.00;;;0.58;93.71
51081;BME280;37130;55.670;37.596;2023-02-14T14:36:00;99190.19;;;0.56;93.61
51081;BME280;37130;55.670;37.596;2023-02-14T14:38:29;99181.53;;;0.55;93.44
51081;BME280;37130;55.670;37.596;2023-02-14T14:40:59;99178.03;;;0.55;93.35
51081;BME280;37130;55.670;37.596;2023-02-14T14:43:35;99191.09;;;0.53;93.82
51081;BME280;37130;55.670;37.596;2023-02-14T14:46:09;99190.34;;;0.45;94.08
51081;BME280;37130;55.670;37.596;2023-02-14T14:48:49;99116.22;;;0.04;94.11
51081;BME280;37130;55.670;37.596;2023-02-14T14:51:25;99193.75;;;0.50;94.36
51081;BME280;37130;55.670;37.596;2023-02-14T14:54:06;99198.13;;;0.47;94.26
51081;BME280;37130;55.670;37.596;2023-02-14T14:56:51;99209.44;;;0.44;94.61
51081;BME280;37130;55.670;37.596;2023-02-14T14:59:32;99205.09;;;0.44;94.23
51081;BME280;37130;55.670;37.596;2023-02-14T15:02:23;99217.28;;;0.41;94.46
51081;BME280;37130;55.670;37.596;2023-02-14T15:04:52;99220.97;;;0.25;96.13
51081;BME280;37130;55.670;37.596;2023-02-14T15:07:31;99224.34;;;0.33;95.26
51081;BME280;37130;55.670;37.596;2023-02-14T15:10:00;99222.56;;;0.36;94.82
51081;BME280;37130;55.670;37.596;2023-02-14T15:12:29;99221.69;;;0.36;94.56
51081;BME280;37130;55.670;37.596;2023-02-14T15:15:16;99232.13;;;0.36;94.55
51081;BME280;37130;55.670;37.596;2023-02-14T15:17:45;99244.28;;;0.35;94.39
51081;BME280;37130;55.670;37.596;2023-02-14T15:20:19;99237.38;;;0.31;93.78
51081;BME280;37130;55.670;37.596;2023-02-14T15:22:50;99243.47;;;0.29;93.92
51081;BME280;37130;55.670;37.596;2023-02-14T15:25:33;99259.03;;;0.36;94.13
51081;BME280;37130;55.670;37.596;2023-02-14T15:28:01;99246.00;;;0.38;94.20
51081;BME280;37130;55.670;37.596;2023-02-14T15:30:31;99257.25;;;0.40;94.09
51081;BME280;37130;55.670;37.596;2023-02-14T15:33:05;99260.78;;;0.36;94.19
51081;BME280;37130;55.670;37.596;2023-02-14T15:35:35;99271.28;;;0.28;94.04
51081;BME280;37130;55.670;37.596;2023-02-14T15:38:05;99268.72;;;0.27;94.18